Terminal Aerodrome Forecast
Issued by NWS

Current Version | Previous Version | Text Only | Print | Product List | Glossary On
Versions: 1 2 3 4 5 6 7 8 9 10 11 12 13 14 15 16 17 18 19
000
FTUS41 KPBZ 242300
TAFZZV
TAF
KZZV 242338Z 2500/2524 35009KT P6SM SCT050
     FM250400 01004KT P6SM SKC
     FM250800 00000KT 5SM BR SKC
     FM250900 00000KT 1SM BR SKC
     FM251000 00000KT 1/4SM FG SKC
     FM251300 25003KT P6SM SKC=

USA.gov is the U.S. government's official web portal to all federal, state and local government web resources and services.